Time;durP1;ratioP1;P1;durP2;ratioP2;P2;SDS_P1;SDS_P2;PMS_P1;PMS_P2;Temp;Humidity;BMP_temperature;BMP_pressure;BME280_temperature;BME280_humidity;BME280_pressure;Samples;Min_cycle;Max_cycle;Signal;HPM_P1;HPM_P2
2023/12/05 00:00:23;;;;;;;28.23;11.57;;;-0.80;99.90;;;;;;4247572;27;20466;-83
2023/12/05 00:02:25;;;;;;;27.10;10.83;;;-0.80;99.90;;;;;;4238399;27;20484;-83
2023/12/05 00:04:27;;;;;;;26.37;10.83;;;-0.70;99.90;;;;;;4242364;27;20448;-83
2023/12/05 00:06:28;;;;;;;29.67;11.00;;;-0.60;99.90;;;;;;4240486;27;20455;-84
2023/12/05 00:08:30;;;;;;;26.93;11.90;;;-0.80;99.90;;;;;;4250721;27;20434;-83
2023/12/05 00:10:31;;;;;;;23.63;10.57;;;-0.40;99.90;;;;;;4245649;27;20205;-83
2023/12/05 00:12:34;;;;;;;26.20;11.43;;;0.00;99.90;;;;;;4243960;27;21029;-85
2023/12/05 00:14:36;;;;;;;26.47;12.07;;;-0.80;99.90;;;;;;4243204;27;20492;-85
2023/12/05 00:16:38;;;;;;;29.40;11.27;;;-0.90;99.90;;;;;;4249816;27;20447;-83
2023/12/05 00:18:44;;;;;;;25.07;11.37;;;-0.80;99.90;;;;;;4248811;27;20478;-84
2023/12/05 00:20:46;;;;;;;29.97;12.23;;;-0.90;99.90;;;;;;4256149;27;20441;-85
2023/12/05 00:22:48;;;;;;;27.87;12.07;;;-0.90;99.90;;;;;;4252475;27;20543;-83
2023/12/05 00:24:50;;;;;;;26.93;11.73;;;-0.90;99.90;;;;;;4251541;27;21166;-85
2023/12/05 00:26:52;;;;;;;27.43;11.30;;;-0.80;99.90;;;;;;4258102;27;20441;-83
2023/12/05 00:28:55;;;;;;;31.60;12.37;;;-0.90;99.90;;;;;;4250393;27;20498;-83
2023/12/05 00:30:57;;;;;;;25.30;11.53;;;-0.60;99.90;;;;;;4249234;27;20818;-86
2023/12/05 00:32:59;;;;;;;26.47;11.83;;;-0.70;99.90;;;;;;4248134;27;20454;-84
2023/12/05 00:35:00;;;;;;;29.07;11.20;;;-0.90;99.90;;;;;;4255386;27;20449;-85
2023/12/05 00:37:03;;;;;;;27.63;11.40;;;0.00;99.90;;;;;;4257837;27;20546;-85
2023/12/05 00:39:05;;;;;;;31.03;11.83;;;-0.90;99.90;;;;;;4258152;27;20470;-85
2023/12/05 00:41:07;;;;;;;26.37;11.17;;;-0.90;99.90;;;;;;4251269;27;20459;-85
2023/12/05 00:43:09;;;;;;;25.73;11.43;;;-0.90;99.90;;;;;;4255275;27;20476;-84
2023/12/05 00:45:14;;;;;;;30.07;11.77;;;-0.90;99.90;;;;;;4255937;27;20527;-84
2023/12/05 00:47:19;;;;;;;24.20;10.93;;;-0.60;99.90;;;;;;4248434;27;20440;-84
2023/12/05 00:49:20;;;;;;;28.63;12.10;;;-0.80;99.90;;;;;;4250563;27;20536;-84
2023/12/05 00:51:22;;;;;;;28.67;11.73;;;0.20;99.90;;;;;;4244465;28;20490;-83
2023/12/05 00:53:24;;;;;;;26.83;11.97;;;-0.80;99.90;;;;;;4241047;27;20473;-84
2023/12/05 00:55:26;;;;;;;28.40;11.73;;;-0.80;99.90;;;;;;4248165;27;20950;-84
2023/12/05 00:57:28;;;;;;;29.50;12.40;;;-0.10;99.90;;;;;;4243131;28;20454;-84
2023/12/05 00:59:30;;;;;;;24.80;10.33;;;-0.80;99.90;;;;;;4237287;27;20471;-84
2023/12/05 01:01:35;;;;;;;25.70;11.20;;;-0.10;99.90;;;;;;4239480;27;20452;-83
2023/12/05 01:03:37;;;;;;;24.20;10.47;;;-0.80;99.90;;;;;;4241005;27;20483;-84
2023/12/05 01:05:40;;;;;;;29.50;12.57;;;-0.80;99.90;;;;;;4244594;27;20955;-83
2023/12/05 01:07:42;;;;;;;27.23;11.90;;;-0.80;99.90;;;;;;4251115;27;20451;-84
2023/12/05 01:09:43;;;;;;;29.00;12.20;;;-0.70;99.90;;;;;;4238301;27;20600;-84
2023/12/05 01:11:45;;;;;;;26.50;12.23;;;-0.60;99.90;;;;;;4236208;27;20468;-84
2023/12/05 01:13:47;;;;;;;26.40;11.63;;;-0.70;99.90;;;;;;4243776;27;20447;-84
2023/12/05 01:15:49;;;;;;;29.57;12.20;;;-0.70;99.90;;;;;;4247634;27;20447;-83
2023/12/05 01:17:54;;;;;;;26.70;11.83;;;-0.50;99.90;;;;;;4249413;27;20451;-84
2023/12/05 01:19:55;;;;;;;27.57;11.23;;;0.40;99.90;;;;;;4260047;27;20451;-84
2023/12/05 01:21:57;;;;;;;25.67;11.27;;;-0.70;99.90;;;;;;4255418;27;20446;-84
2023/12/05 01:23:59;;;;;;;25.17;11.57;;;-0.70;99.90;;;;;;4251862;28;20483;-82
2023/12/05 01:26:01;;;;;;;28.50;11.57;;;-0.70;99.90;;;;;;4237555;28;20539;-82
2023/12/05 01:28:04;;;;;;;26.07;11.77;;;-0.70;99.90;;;;;;4236144;28;20951;-83
2023/12/05 01:30:07;;;;;;;25.17;11.10;;;-0.70;99.90;;;;;;4240930;28;20464;-83
2023/12/05 01:32:09;;;;;;;29.30;12.20;;;-0.70;99.90;;;;;;4240416;28;20480;-83
2023/12/05 01:34:12;;;;;;;26.00;11.90;;;-0.70;99.90;;;;;;4244386;27;20503;-83
2023/12/05 01:36:15;;;;;;;24.03;11.30;;;-0.30;99.90;;;;;;4246678;27;21213;-83
2023/12/05 01:38:18;;;;;;;27.23;12.10;;;0.10;99.90;;;;;;4239261;27;20444;-82
2023/12/05 01:40:20;;;;;;;28.73;11.83;;;0.00;99.90;;;;;;4241213;28;20947;-82
2023/12/05 01:42:21;;;;;;;28.80;12.30;;;-0.60;99.90;;;;;;4240671;28;20455;-82
2023/12/05 01:44:23;;;;;;;28.50;11.97;;;-0.40;99.90;;;;;;4241462;27;21058;-84
2023/12/05 01:46:25;;;;;;;26.47;11.70;;;-0.70;99.90;;;;;;4239076;28;20919;-82
2023/12/05 01:48:29;;;;;;;28.73;12.20;;;-0.70;99.90;;;;;;4241935;28;21135;-82
2023/12/05 01:50:36;;;;;;;26.53;12.70;;;-0.70;99.90;;;;;;4238461;27;20498;-82
2023/12/05 01:52:41;;;;;;;29.50;12.47;;;-0.70;99.90;;;;;;4237268;27;20805;-81
2023/12/05 01:54:44;;;;;;;27.93;11.90;;;-0.30;99.90;;;;;;4238973;27;20451;-82
2023/12/05 01:56:45;;;;;;;25.53;10.80;;;-0.70;99.90;;;;;;4241717;27;20445;-83
2023/12/05 01:58:47;;;;;;;24.70;11.60;;;-0.80;99.90;;;;;;4235824;27;20465;-83
2023/12/05 02:00:49;;;;;;;27.60;12.40;;;-0.80;99.90;;;;;;4243365;27;20449;-84
2023/12/05 02:02:51;;;;;;;25.33;11.83;;;-0.80;99.90;;;;;;4249307;27;20502;-83
2023/12/05 02:04:53;;;;;;;28.70;12.57;;;-0.80;99.90;;;;;;4245377;27;20910;-84
2023/12/05 02:06:56;;;;;;;31.03;12.43;;;-0.70;99.90;;;;;;4238767;27;20848;-85
2023/12/05 02:09:00;;;;;;;29.97;12.50;;;-0.70;99.90;;;;;;4239972;27;20582;-84
2023/12/05 02:11:02;;;;;;;24.80;10.93;;;-0.70;99.90;;;;;;4241686;27;20445;-84
2023/12/05 02:13:04;;;;;;;27.60;11.63;;;-0.70;99.90;;;;;;4238084;27;20449;-85
2023/12/05 02:15:07;;;;;;;25.73;11.77;;;-0.70;99.90;;;;;;4237217;27;20454;-84
2023/12/05 02:17:15;;;;;;;26.60;11.63;;;-0.70;99.90;;;;;;4242719;27;20449;-84
2023/12/05 02:19:39;;;;;;;29.70;12.30;;;-0.70;99.90;;;;;;4240305;27;20475;-84
2023/12/05 02:21:47;;;;;;;27.93;11.93;;;-0.60;99.90;;;;;;4245097;27;20464;-85
2023/12/05 02:24:16;;;;;;;27.83;12.40;;;-0.10;99.90;;;;;;4238909;27;20479;-84
2023/12/05 02:26:28;;;;;;;27.17;11.60;;;-0.50;99.90;;;;;;4239490;27;20500;-84
2023/12/05 02:28:32;;;;;;;30.17;12.93;;;-0.70;99.90;;;;;;4242529;27;20474;-84
2023/12/05 02:30:54;;;;;;;24.17;11.33;;;-0.70;99.90;;;;;;4242319;27;20897;-84
2023/12/05 02:33:15;;;;;;;28.43;12.27;;;-0.70;99.90;;;;;;4239976;27;20836;-85
2023/12/05 02:35:18;;;;;;;29.23;12.33;;;-0.70;99.90;;;;;;4241002;27;20510;-85
2023/12/05 02:37:44;;;;;;;27.93;11.77;;;-0.70;99.90;;;;;;4245863;27;20437;-84
2023/12/05 02:39:58;;;;;;;27.17;11.43;;;-0.70;99.90;;;;;;4247204;27;20468;-84
2023/12/05 02:42:03;;;;;;;27.07;11.80;;;-0.70;99.90;;;;;;4241842;27;20447;-84
2023/12/05 02:44:12;;;;;;;26.63;11.87;;;-0.70;99.90;;;;;;4245038;27;20540;-85
2023/12/05 02:46:16;;;;;;;26.87;11.60;;;-0.30;99.90;;;;;;4245756;27;20444;-83
2023/12/05 02:48:19;;;;;;;27.43;11.57;;;-0.70;99.90;;;;;;4253530;27;20456;-83
2023/12/05 02:50:21;;;;;;;25.60;10.93;;;-0.60;99.90;;;;;;4241804;27;20503;-83
2023/12/05 02:52:24;;;;;;;23.60;11.07;;;-0.30;99.90;;;;;;4242181;27;21292;-83
2023/12/05 02:54:26;;;;;;;23.23;11.00;;;0.50;99.90;;;;;;4240225;27;20536;-83
2023/12/05 02:56:27;;;;;;;27.00;11.23;;;-0.40;99.90;;;;;;4244329;27;20436;-83
2023/12/05 02:58:30;;;;;;;27.47;11.77;;;-0.70;99.90;;;;;;4250884;27;20467;-84
2023/12/05 03:00:33;;;;;;;29.27;11.23;;;-0.70;99.90;;;;;;4239162;27;20442;-83
2023/12/05 03:02:35;;;;;;;27.17;11.77;;;-0.70;99.90;;;;;;4235276;27;20450;-83
2023/12/05 03:04:37;;;;;;;26.97;12.10;;;-0.70;99.90;;;;;;4244770;27;20595;-83
2023/12/05 03:06:39;;;;;;;26.27;11.80;;;-0.80;99.90;;;;;;4243825;27;20495;-83
2023/12/05 03:08:41;;;;;;;24.30;11.70;;;-0.60;99.90;;;;;;4244282;27;20461;-83
2023/12/05 03:10:43;;;;;;;24.37;11.37;;;-0.50;99.90;;;;;;4245931;27;20491;-83
2023/12/05 03:12:45;;;;;;;26.67;11.87;;;-0.60;99.90;;;;;;4244929;27;20459;-83
2023/12/05 03:14:47;;;;;;;25.53;11.50;;;-0.60;99.90;;;;;;4241181;27;20445;-83
2023/12/05 03:16:50;;;;;;;27.30;11.50;;;-0.60;99.90;;;;;;4243523;27;20485;-85
2023/12/05 03:18:52;;;;;;;28.00;12.23;;;-0.60;99.90;;;;;;4240363;27;20569;-84
2023/12/05 03:20:56;;;;;;;25.40;11.07;;;0.20;99.90;;;;;;4244980;27;20507;-85
2023/12/05 03:22:58;;;;;;;25.50;11.57;;;-0.60;99.90;;;;;;4243436;27;20449;-85
2023/12/05 03:25:01;;;;;;;25.70;11.40;;;-0.60;99.90;;;;;;4237527;27;20911;-85
2023/12/05 03:27:03;;;;;;;24.07;10.90;;;-0.60;99.90;;;;;;4239434;27;21158;-87
2023/12/05 03:29:05;;;;;;;25.93;11.67;;;-0.30;99.90;;;;;;4238039;27;20475;-84
2023/12/05 03:31:07;;;;;;;27.57;11.00;;;-0.60;99.90;;;;;;4241134;27;20451;-85
2023/12/05 03:33:11;;;;;;;27.47;12.10;;;-0.60;99.90;;;;;;4237825;27;20524;-84
2023/12/05 03:35:13;;;;;;;28.13;12.57;;;-0.60;99.90;;;;;;4244535;27;20525;-87
2023/12/05 03:37:16;;;;;;;27.33;11.90;;;-0.10;99.90;;;;;;4263463;27;20473;-85
2023/12/05 03:39:18;;;;;;;26.77;11.33;;;-0.60;99.90;;;;;;4247039;27;20523;-86
2023/12/05 03:41:20;;;;;;;26.87;11.80;;;-0.60;99.90;;;;;;4258131;27;20495;-84
2023/12/05 03:43:23;;;;;;;26.57;12.00;;;-0.60;99.90;;;;;;4260513;27;20449;-85
2023/12/05 03:45:25;;;;;;;26.90;12.33;;;0.20;99.90;;;;;;4270389;27;20508;-85
2023/12/05 03:47:27;;;;;;;24.67;10.87;;;-0.30;99.90;;;;;;4242301;27;20925;-85
2023/12/05 03:49:30;;;;;;;27.93;12.73;;;-0.60;99.90;;;;;;4246845;27;20464;-84
2023/12/05 03:51:32;;;;;;;28.93;12.57;;;-0.50;99.90;;;;;;4239919;27;20514;-84
2023/12/05 03:53:34;;;;;;;22.77;11.50;;;-0.50;99.90;;;;;;4233459;27;20475;-83
2023/12/05 03:55:36;;;;;;;24.40;11.20;;;-0.50;99.90;;;;;;4236044;27;20458;-84
2023/12/05 03:57:38;;;;;;;25.67;11.13;;;-0.50;99.90;;;;;;4245707;27;20438;-84
2023/12/05 03:59:40;;;;;;;27.73;12.13;;;-0.30;99.90;;;;;;4243793;27;20477;-83
2023/12/05 04:01:43;;;;;;;25.30;12.17;;;-0.50;99.90;;;;;;4240347;27;20452;-84
2023/12/05 04:03:45;;;;;;;25.40;11.87;;;-0.90;99.90;;;;;;4241440;27;20489;-84
2023/12/05 04:05:47;;;;;;;27.00;11.87;;;-0.50;99.90;;;;;;4242813;27;20469;-84
2023/12/05 04:07:49;;;;;;;25.40;12.13;;;0.20;99.90;;;;;;4248285;27;20854;-84
2023/12/05 04:09:51;;;;;;;26.40;11.07;;;-0.70;99.90;;;;;;4242442;27;20536;-84
2023/12/05 04:11:53;;;;;;;26.43;11.03;;;-0.50;99.90;;;;;;4235575;27;20444;-84
2023/12/05 04:13:55;;;;;;;27.00;12.00;;;-0.50;99.90;;;;;;4238528;27;20984;-85
2023/12/05 04:15:57;;;;;;;23.63;11.23;;;-0.50;99.90;;;;;;4245769;27;20449;-85
2023/12/05 04:18:00;;;;;;;27.40;12.00;;;-0.50;99.90;;;;;;4249935;27;20488;-87
2023/12/05 04:20:04;;;;;;;24.97;11.10;;;-0.50;99.90;;;;;;4257327;27;20457;-86
2023/12/05 04:22:08;;;;;;;25.33;10.87;;;-0.30;99.90;;;;;;4255566;27;20551;-85
2023/12/05 04:24:10;;;;;;;26.20;11.60;;;-0.20;99.90;;;;;;4252198;27;20503;-88
2023/12/05 04:26:14;;;;;;;26.17;10.70;;;-0.50;99.90;;;;;;4249558;27;20540;-84
2023/12/05 04:28:16;;;;;;;25.13;11.00;;;-1.00;99.90;;;;;;4240458;27;20449;-85
2023/12/05 04:30:18;;;;;;;24.53;11.33;;;-0.70;99.90;;;;;;4248890;27;20475;-85
2023/12/05 04:32:20;;;;;;;29.27;11.97;;;-0.10;99.90;;;;;;4246541;27;20451;-85
2023/12/05 04:34:25;;;;;;;26.13;11.80;;;-0.20;99.90;;;;;;4249804;27;20493;-85
2023/12/05 04:36:28;;;;;;;25.33;11.50;;;-0.50;99.90;;;;;;4255640;27;20441;-85
2023/12/05 04:38:31;;;;;;;25.10;11.07;;;-0.40;99.90;;;;;;4253129;27;20452;-85
2023/12/05 04:40:33;;;;;;;28.87;12.53;;;0.10;99.90;;;;;;4237638;27;20457;-84
2023/12/05 04:42:36;;;;;;;24.47;11.33;;;-0.30;99.90;;;;;;4239557;27;20453;-83
2023/12/05 04:44:38;;;;;;;24.23;11.00;;;-0.40;99.90;;;;;;4239553;27;20475;-85
2023/12/05 04:46:40;;;;;;;27.27;11.93;;;-0.40;99.90;;;;;;4233746;27;20503;-86
2023/12/05 04:48:45;;;;;;;25.13;11.73;;;-0.40;99.90;;;;;;4232715;27;20466;-85
2023/12/05 04:50:47;;;;;;;25.47;11.77;;;-0.10;99.90;;;;;;4244273;27;20481;-85
2023/12/05 04:52:49;;;;;;;22.67;10.63;;;-0.50;99.90;;;;;;4251379;27;20459;-85
2023/12/05 04:54:52;;;;;;;28.20;11.20;;;0.00;99.90;;;;;;4239795;28;20471;-86
2023/12/05 04:56:54;;;;;;;30.33;11.87;;;-0.40;99.90;;;;;;4237930;28;20449;-85
2023/12/05 04:58:57;;;;;;;28.23;11.37;;;-0.50;99.90;;;;;;4251179;28;20548;-86
2023/12/05 05:01:00;;;;;;;27.03;12.30;;;-0.50;99.90;;;;;;4250478;28;20563;-85
2023/12/05 05:03:02;;;;;;;26.27;11.80;;;-0.50;99.90;;;;;;4243765;28;20515;-86
2023/12/05 05:05:05;;;;;;;26.83;11.23;;;0.70;99.90;;;;;;4248744;28;20476;-86
2023/12/05 05:07:07;;;;;;;24.80;11.87;;;-0.50;99.90;;;;;;4248165;28;20446;-85
2023/12/05 05:09:09;;;;;;;23.37;11.00;;;0.30;99.90;;;;;;4259639;27;20837;-86
2023/12/05 05:11:13;;;;;;;26.73;11.50;;;-0.50;99.90;;;;;;4264583;27;20478;-84
2023/12/05 05:13:15;;;;;;;25.50;11.80;;;-0.60;99.90;;;;;;4252486;27;20469;-84
2023/12/05 05:15:17;;;;;;;24.43;11.37;;;-0.50;99.90;;;;;;4243729;28;20470;-85
2023/12/05 05:17:20;;;;;;;27.53;11.70;;;-0.50;99.90;;;;;;4241295;28;21036;-85
2023/12/05 05:19:22;;;;;;;25.97;11.73;;;-0.50;99.90;;;;;;4245215;27;20476;-84
2023/12/05 05:21:23;;;;;;;24.67;11.50;;;-0.50;99.90;;;;;;4243393;27;20468;-84
2023/12/05 05:23:25;;;;;;;27.20;12.17;;;-0.60;99.90;;;;;;4240359;28;20445;-86
2023/12/05 05:25:27;;;;;;;26.73;11.90;;;-0.40;99.90;;;;;;4237213;28;20512;-86
2023/12/05 05:27:31;;;;;;;28.20;12.67;;;-0.40;99.90;;;;;;4246774;27;20467;-84
2023/12/05 05:29:33;;;;;;;25.50;10.93;;;-0.50;99.90;;;;;;4260261;27;20560;-84
2023/12/05 05:31:36;;;;;;;26.23;11.77;;;-0.20;99.90;;;;;;4254889;27;20482;-85
2023/12/05 05:33:38;;;;;;;22.73;11.27;;;-0.40;99.90;;;;;;4255588;27;20433;-86
2023/12/05 05:35:40;;;;;;;26.67;12.00;;;-0.20;99.90;;;;;;4254109;27;20553;-84
2023/12/05 05:37:42;;;;;;;26.60;11.83;;;-0.40;99.90;;;;;;4259708;27;20440;-84
2023/12/05 05:39:44;;;;;;;26.70;10.70;;;-0.10;99.90;;;;;;4259697;27;20535;-85
2023/12/05 05:41:46;;;;;;;24.03;10.90;;;-0.40;99.90;;;;;;4258658;27;20884;-85
2023/12/05 05:43:50;;;;;;;25.17;11.87;;;-0.40;99.90;;;;;;4244890;28;20433;-85
2023/12/05 05:45:52;;;;;;;24.73;11.30;;;-0.40;99.90;;;;;;4238618;28;20534;-85
2023/12/05 05:47:54;;;;;;;24.67;11.40;;;-0.40;99.90;;;;;;4247003;27;20528;-85
2023/12/05 05:49:56;;;;;;;26.47;11.63;;;-0.50;99.90;;;;;;4246874;27;20830;-84
2023/12/05 05:51:58;;;;;;;28.73;12.10;;;0.90;99.90;;;;;;4249789;27;20455;-85
2023/12/05 05:53:59;;;;;;;26.93;12.07;;;-0.30;99.90;;;;;;4256802;27;20848;-84
2023/12/05 05:56:02;;;;;;;27.50;11.93;;;-0.10;99.90;;;;;;4257744;27;20467;-84
2023/12/05 05:58:04;;;;;;;23.67;10.27;;;-0.40;99.90;;;;;;4252837;27;20508;-85
2023/12/05 06:00:13;;;;;;;25.77;11.53;;;-0.40;99.90;;;;;;4252004;28;20461;-87
2023/12/05 06:02:16;;;;;;;25.47;11.20;;;-0.40;99.90;;;;;;4253799;28;20479;-86
2023/12/05 06:04:18;;;;;;;28.37;12.20;;;-0.10;99.90;;;;;;4251713;28;20440;-85
2023/12/05 06:06:20;;;;;;;24.83;12.03;;;-0.40;99.90;;;;;;4266909;27;20465;-83
2023/12/05 06:08:22;;;;;;;28.67;12.20;;;-0.30;99.90;;;;;;4272217;27;20431;-83
2023/12/05 06:10:24;;;;;;;26.97;11.77;;;-0.20;99.90;;;;;;4276498;27;20507;-83
2023/12/05 06:12:26;;;;;;;27.63;11.73;;;-0.40;99.90;;;;;;4279452;27;20798;-83
2023/12/05 06:14:28;;;;;;;25.53;10.90;;;-0.50;99.90;;;;;;4260304;27;20559;-82
2023/12/05 06:16:32;;;;;;;26.97;12.10;;;-0.10;99.90;;;;;;4250919;27;21168;-82
2023/12/05 06:18:34;;;;;;;27.23;11.67;;;-0.20;99.90;;;;;;4249828;27;20453;-83
2023/12/05 06:20:36;;;;;;;26.07;12.27;;;-0.20;99.90;;;;;;4249069;27;20445;-82
2023/12/05 06:22:38;;;;;;;29.40;12.63;;;0.10;99.90;;;;;;4246171;27;20452;-81
2023/12/05 06:24:40;;;;;;;28.53;12.40;;;0.50;99.90;;;;;;4248707;27;20488;-83
2023/12/05 06:26:42;;;;;;;26.20;12.50;;;-0.40;99.90;;;;;;4247937;27;20440;-83
2023/12/05 06:28:44;;;;;;;26.63;12.10;;;-0.40;99.90;;;;;;4251980;27;20547;-83
2023/12/05 06:30:45;;;;;;;28.00;12.53;;;-0.40;99.90;;;;;;4254152;27;20444;-84
2023/12/05 06:32:48;;;;;;;30.60;13.17;;;0.20;99.90;;;;;;4246705;27;20481;-80
2023/12/05 06:34:49;;;;;;;24.93;11.27;;;-0.40;99.90;;;;;;4246145;27;20441;-85
2023/12/05 06:36:51;;;;;;;32.07;12.57;;;-0.40;99.90;;;;;;4246484;27;20558;-81
2023/12/05 06:38:53;;;;;;;30.47;12.77;;;-0.10;99.90;;;;;;4249480;27;20462;-80
2023/12/05 06:40:55;;;;;;;27.23;12.83;;;-0.40;99.90;;;;;;4250516;27;20475;-84
2023/12/05 06:42:57;;;;;;;27.73;11.87;;;-0.40;99.90;;;;;;4248735;27;20463;-84
2023/12/05 06:44:59;;;;;;;27.07;12.80;;;-0.40;99.90;;;;;;4248763;27;20497;-77
2023/12/05 06:47:01;;;;;;;29.23;12.53;;;-0.40;99.90;;;;;;4247792;27;20528;-83
2023/12/05 06:49:05;;;;;;;28.60;12.37;;;-0.40;99.90;;;;;;4247713;27;20472;-82
2023/12/05 06:51:08;;;;;;;29.57;12.60;;;-0.40;99.90;;;;;;4248231;27;20508;-79
2023/12/05 06:53:10;;;;;;;27.87;12.57;;;-0.30;99.90;;;;;;4248583;27;21734;-79
2023/12/05 06:55:12;;;;;;;29.70;12.87;;;-0.30;99.90;;;;;;4246937;27;20479;-78
2023/12/05 06:57:14;;;;;;;30.27;13.13;;;-0.30;99.90;;;;;;4245691;27;20441;-80
2023/12/05 06:59:16;;;;;;;27.43;12.37;;;-0.30;99.90;;;;;;4248545;27;20476;-79
2023/12/05 07:01:18;;;;;;;30.30;12.93;;;-0.30;99.90;;;;;;4249588;27;20828;-82
2023/12/05 07:03:19;;;;;;;26.77;11.70;;;-0.30;99.90;;;;;;4245687;27;20459;-78
2023/12/05 07:05:23;;;;;;;27.70;12.17;;;0.20;99.90;;;;;;4245358;27;20530;-81
2023/12/05 07:07:25;;;;;;;27.73;11.93;;;-0.20;99.90;;;;;;4248440;27;20455;-78
2023/12/05 07:09:27;;;;;;;26.43;11.93;;;-0.30;99.90;;;;;;4240019;27;20477;-79
2023/12/05 07:11:28;;;;;;;25.17;12.03;;;-0.30;99.90;;;;;;4225336;28;20457;-78
2023/12/05 07:13:30;;;;;;;29.87;12.27;;;-0.30;99.90;;;;;;4245845;27;20472;-78
2023/12/05 07:15:35;;;;;;;31.73;12.70;;;-0.30;99.90;;;;;;4237384;27;20965;-78
2023/12/05 07:17:37;;;;;;;29.60;13.33;;;-0.30;99.90;;;;;;4241046;27;20537;-78
2023/12/05 07:19:38;;;;;;;28.00;11.80;;;-0.20;99.90;;;;;;4243202;27;20517;-79
2023/12/05 07:21:42;;;;;;;26.20;12.40;;;-0.10;99.90;;;;;;4244036;27;20479;-78
2023/12/05 07:23:44;;;;;;;30.07;12.53;;;-0.30;99.90;;;;;;4220607;27;20465;-78
2023/12/05 07:25:47;;;;;;;27.17;12.10;;;-0.20;99.90;;;;;;4236089;27;20501;-78
2023/12/05 07:27:49;;;;;;;28.23;12.50;;;-0.20;99.90;;;;;;4241216;27;20455;-78
2023/12/05 07:29:50;;;;;;;25.70;11.43;;;-0.20;99.90;;;;;;4236039;27;20538;-78
2023/12/05 07:31:53;;;;;;;30.67;13.23;;;-0.20;99.90;;;;;;4237720;27;20445;-77
2023/12/05 07:33:57;;;;;;;27.93;12.77;;;-0.20;99.90;;;;;;4239679;27;20295;-79
2023/12/05 07:35:59;;;;;;;27.67;12.00;;;0.00;99.90;;;;;;4236413;27;20438;-77
2023/12/05 07:38:02;;;;;;;26.97;12.33;;;-0.20;99.90;;;;;;4242578;27;20971;-77
2023/12/05 07:40:05;;;;;;;27.10;11.10;;;-0.10;99.90;;;;;;4219381;28;20462;-78
2023/12/05 07:42:07;;;;;;;25.20;11.33;;;-0.10;99.90;;;;;;4241814;27;20433;-77
2023/12/05 07:44:10;;;;;;;26.33;11.20;;;-0.10;99.90;;;;;;4238914;27;20453;-79
2023/12/05 07:46:11;;;;;;;26.73;11.63;;;-0.10;99.90;;;;;;4239816;27;20483;-77
2023/12/05 07:48:13;;;;;;;28.63;12.97;;;0.10;99.90;;;;;;4247499;27;20461;-77
2023/12/05 07:50:15;;;;;;;29.30;12.53;;;-0.10;99.90;;;;;;4234894;27;20457;-77
2023/12/05 07:52:18;;;;;;;28.10;12.43;;;-0.10;99.90;;;;;;4237366;27;20434;-76
2023/12/05 07:54:24;;;;;;;32.33;12.87;;;0.00;99.90;;;;;;4239915;27;20579;-75
2023/12/05 07:56:26;;;;;;;29.27;12.60;;;0.00;99.90;;;;;;4235199;27;20452;-76
2023/12/05 07:58:28;;;;;;;31.30;12.73;;;0.00;99.90;;;;;;4235906;27;20436;-76
2023/12/05 08:00:30;;;;;;;25.73;11.83;;;0.00;99.90;;;;;;4233910;27;20444;-76
2023/12/05 08:02:32;;;;;;;26.53;12.23;;;0.00;99.90;;;;;;4239557;27;20452;-76
2023/12/05 08:04:34;;;;;;;27.87;12.67;;;0.00;99.90;;;;;;4236224;27;20449;-76
2023/12/05 08:06:36;;;;;;;32.03;13.77;;;0.80;99.90;;;;;;4240689;27;20506;-76
2023/12/05 08:08:38;;;;;;;27.30;12.37;;;0.00;99.90;;;;;;4237054;27;20494;-75
2023/12/05 08:10:41;;;;;;;29.03;13.00;;;0.00;99.90;;;;;;4234464;27;20465;-76
2023/12/05 08:12:43;;;;;;;31.63;13.27;;;0.00;99.90;;;;;;4239259;27;20465;-76
2023/12/05 08:14:45;;;;;;;28.53;12.13;;;0.00;99.90;;;;;;4221637;27;20484;-76
2023/12/05 08:16:47;;;;;;;26.43;11.97;;;0.10;99.90;;;;;;4244770;27;20458;-76
2023/12/05 08:18:48;;;;;;;27.87;11.97;;;0.10;99.90;;;;;;4241237;27;20460;-76
2023/12/05 08:20:50;;;;;;;28.60;11.97;;;0.00;99.90;;;;;;4238041;27;20447;-76
2023/12/05 08:22:52;;;;;;;24.33;11.13;;;0.00;99.90;;;;;;4236340;27;20438;-76
2023/12/05 08:24:54;;;;;;;26.50;11.63;;;0.10;99.90;;;;;;4235336;27;20450;-76
2023/12/05 08:26:58;;;;;;;27.60;12.57;;;0.00;99.90;;;;;;4243894;27;20444;-76
2023/12/05 08:29:00;;;;;;;26.73;11.67;;;0.10;99.90;;;;;;4249494;27;20542;-75
2023/12/05 08:31:06;;;;;;;29.97;12.40;;;0.10;99.90;;;;;;4249425;27;20451;-76
2023/12/05 08:33:07;;;;;;;28.60;12.57;;;0.10;99.90;;;;;;4241844;27;20441;-77
2023/12/05 08:35:12;;;;;;;29.73;12.20;;;0.10;99.90;;;;;;4241298;27;20480;-77
2023/12/05 08:37:15;;;;;;;27.37;12.40;;;0.10;99.90;;;;;;4235425;27;20442;-77
2023/12/05 08:39:17;;;;;;;26.23;12.20;;;0.10;99.90;;;;;;4240481;27;20460;-77
2023/12/05 08:41:19;;;;;;;26.33;11.97;;;0.10;99.90;;;;;;4233232;27;20450;-77
2023/12/05 08:43:23;;;;;;;25.47;11.53;;;0.10;99.90;;;;;;4233220;27;20536;-80
2023/12/05 08:45:24;;;;;;;29.60;12.80;;;0.00;99.90;;;;;;4233779;27;20531;-76
2023/12/05 08:47:30;;;;;;;26.43;12.30;;;0.10;99.90;;;;;;4235489;27;20953;-77
2023/12/05 08:49:31;;;;;;;24.30;11.00;;;0.10;99.90;;;;;;4235026;27;20500;-77
2023/12/05 08:51:33;;;;;;;26.37;12.37;;;0.10;99.90;;;;;;4243460;27;20460;-78
2023/12/05 08:53:35;;;;;;;24.47;11.60;;;0.10;99.90;;;;;;4241770;27;20461;-77
2023/12/05 08:55:39;;;;;;;25.77;11.63;;;0.10;99.90;;;;;;4237719;27;20446;-77
2023/12/05 08:57:41;;;;;;;25.20;11.20;;;0.10;99.90;;;;;;4243667;27;20433;-77
2023/12/05 08:59:45;;;;;;;26.80;11.43;;;0.10;99.90;;;;;;4231608;28;20514;-78
2023/12/05 09:01:48;;;;;;;25.23;10.80;;;0.20;99.90;;;;;;4235028;27;20461;-81
2023/12/05 09:03:49;;;;;;;22.60;10.30;;;0.20;99.90;;;;;;4237390;28;20438;-83
2023/12/05 09:05:53;;;;;;;24.17;10.73;;;0.20;99.90;;;;;;4241409;28;20987;-76
2023/12/05 09:07:56;;;;;;;24.10;10.73;;;0.20;99.90;;;;;;4241996;28;20450;-78
2023/12/05 09:09:57;;;;;;;26.57;10.60;;;0.20;99.90;;;;;;4240975;28;21780;-78
2023/12/05 09:11:59;;;;;;;21.20;10.63;;;0.20;99.90;;;;;;4240624;27;20533;-78
2023/12/05 09:14:01;;;;;;;25.97;11.57;;;0.20;99.90;;;;;;4241455;28;20453;-78
2023/12/05 09:16:05;;;;;;;27.17;12.10;;;0.20;99.90;;;;;;4240597;28;20806;-79
2023/12/05 09:18:07;;;;;;;23.50;10.70;;;0.20;99.90;;;;;;4236424;27;20499;-78
2023/12/05 09:20:10;;;;;;;25.00;11.30;;;0.20;99.90;;;;;;4238023;27;20481;-78
2023/12/05 09:22:12;;;;;;;25.73;11.03;;;0.20;99.90;;;;;;4236610;27;20465;-78
2023/12/05 09:24:14;;;;;;;29.00;13.10;;;0.20;99.90;;;;;;4237208;28;20454;-78
2023/12/05 09:26:18;;;;;;;25.37;11.37;;;0.20;99.90;;;;;;4237434;27;20541;-78
2023/12/05 09:28:19;;;;;;;25.63;10.70;;;0.30;99.90;;;;;;4241799;28;21012;-79
2023/12/05 09:30:21;;;;;;;31.00;12.03;;;0.20;99.90;;;;;;4234784;27;20556;-79
2023/12/05 09:32:24;;;;;;;26.93;11.47;;;0.30;99.90;;;;;;4236638;27;20207;-78
2023/12/05 09:34:25;;;;;;;24.20;11.13;;;0.30;99.90;;;;;;4232417;27;20491;-79
2023/12/05 09:36:27;;;;;;;23.43;11.20;;;0.60;99.90;;;;;;4238922;27;20531;-78
2023/12/05 09:38:29;;;;;;;22.97;10.63;;;0.40;99.90;;;;;;4241681;27;20449;-79
2023/12/05 09:40:31;;;;;;;23.50;10.60;;;0.40;99.90;;;;;;4237419;27;20458;-80
2023/12/05 09:42:35;;;;;;;24.73;11.43;;;0.40;99.90;;;;;;4238599;27;20439;-79
2023/12/05 09:44:39;;;;;;;25.77;11.60;;;0.40;99.90;;;;;;4240943;27;20457;-79
2023/12/05 09:46:46;;;;;;;24.40;10.77;;;0.40;99.90;;;;;;4243410;28;20474;-79
2023/12/05 09:48:54;;;;;;;26.23;11.20;;;0.40;99.90;;;;;;4239881;28;20537;-80
2023/12/05 09:50:57;;;;;;;22.43;10.57;;;0.40;99.90;;;;;;4241478;27;20448;-80
2023/12/05 09:53:00;;;;;;;24.33;11.13;;;0.50;99.90;;;;;;4246747;27;20445;-78
2023/12/05 09:55:03;;;;;;;24.10;10.63;;;0.40;99.90;;;;;;4251952;27;20505;-77
2023/12/05 09:57:06;;;;;;;22.43;9.97;;;0.40;99.90;;;;;;4242371;28;20462;-79
2023/12/05 09:59:09;;;;;;;21.77;10.50;;;0.50;99.90;;;;;;4241346;27;20494;-80
2023/12/05 10:01:15;;;;;;;26.03;12.07;;;0.50;99.90;;;;;;4239906;27;20442;-80
2023/12/05 10:03:17;;;;;;;22.23;10.90;;;0.50;99.90;;;;;;4239921;28;20450;-77
2023/12/05 10:05:20;;;;;;;24.67;11.07;;;0.50;99.90;;;;;;4239464;28;21001;-77
2023/12/05 10:07:23;;;;;;;21.23;10.40;;;0.50;99.90;;;;;;4240778;28;20425;-77
2023/12/05 10:09:26;;;;;;;23.77;10.97;;;0.50;99.90;;;;;;4241953;28;20548;-77
2023/12/05 10:11:28;;;;;;;26.23;11.07;;;0.60;99.90;;;;;;4237289;27;20446;-80
2023/12/05 10:13:30;;;;;;;21.30;9.93;;;0.60;99.90;;;;;;4234789;28;20438;-77
2023/12/05 10:15:34;;;;;;;24.83;10.97;;;0.60;99.90;;;;;;4238550;27;20433;-77
2023/12/05 10:17:36;;;;;;;23.53;10.90;;;0.70;99.90;;;;;;4237753;27;20487;-78
2023/12/05 10:19:38;;;;;;;24.40;11.47;;;0.70;99.90;;;;;;4245934;27;20510;-78
2023/12/05 10:21:40;;;;;;;20.10;9.97;;;0.70;99.90;;;;;;4234555;27;20472;-79
2023/12/05 10:23:42;;;;;;;23.40;11.10;;;0.70;99.90;;;;;;4236358;27;20450;-77
2023/12/05 10:25:44;;;;;;;24.80;11.20;;;0.80;99.90;;;;;;4238595;27;20464;-77